createdAt,value
2022-12-07T02:56:50.083Z,5.25
2022-12-07T03:02:28.156Z,4.53
2022-12-07T03:08:01.013Z,4.60
2022-12-07T03:13:40.428Z,4.93
2022-12-07T03:19:13.448Z,6.85
2022-12-07T03:24:42.677Z,4.40
2022-12-07T03:30:09.690Z,5.17
2022-12-07T03:35:38.165Z,4.05
2022-12-07T03:41:09.413Z,3.72
2022-12-07T03:52:16.167Z,4.82
2022-12-07T03:57:48.258Z,5.90
2022-12-07T04:03:14.072Z,4.25
2022-12-07T04:08:43.223Z,6.88
2022-12-07T04:14:22.676Z,7.57
2022-12-07T04:19:52.777Z,3.45
2022-12-07T04:25:21.572Z,10.10
2022-12-07T04:30:50.411Z,6.83
2022-12-07T04:36:20.781Z,5.88
2022-12-07T04:41:49.253Z,5.78
2022-12-07T04:47:18.520Z,11.70
2022-12-07T04:52:45.129Z,10.52
2022-12-07T04:58:15.053Z,6.63
2022-12-07T05:03:41.039Z,8.20
2022-12-07T05:09:12.045Z,7.68
2022-12-07T05:14:41.358Z,6.43
2022-12-07T05:20:11.472Z,7.00
2022-12-07T05:25:42.230Z,5.40
2022-12-07T05:31:11.907Z,6.88
2022-12-07T05:36:41.871Z,7.38
2022-12-07T05:42:15.756Z,6.80
2022-12-07T05:47:39.794Z,9.25
2022-12-07T05:53:02.930Z,11.80
2022-12-07T05:58:45.524Z,8.20
2022-12-07T06:04:09.809Z,12.82
2022-12-07T06:09:34.072Z,10.10
2022-12-07T06:15:05.224Z,7.07
2022-12-07T06:20:28.588Z,9.10
2022-12-07T06:25:52.198Z,10.23
2022-12-07T06:31:17.238Z,8.88
2022-12-07T06:36:41.199Z,6.63
2022-12-07T06:42:04.835Z,10.93
2022-12-07T06:47:40.433Z,12.43
2022-12-07T06:53:04.579Z,6.65
2022-12-07T06:58:28.121Z,10.40
2022-12-07T07:03:53.551Z,8.50
2022-12-07T07:09:17.053Z,11.82
2022-12-07T07:14:40.641Z,8.15
2022-12-07T11:50:29.198Z,12.43
2022-12-07T12:02:54.731Z,10.02
2022-12-07T12:14:37.244Z,6.50
2022-12-07T12:20:17.071Z,9.93
2022-12-07T12:25:45.136Z,11.50
2022-12-07T12:31:18.039Z,12.73
2022-12-07T12:36:50.231Z,9.10
2022-12-07T12:42:23.673Z,9.52
2022-12-07T12:48:09.365Z,9.95
2022-12-07T12:53:35.560Z,11.47
2022-12-07T12:59:30.371Z,10.95
2022-12-07T13:05:01.267Z,9.68
2022-12-07T13:10:45.941Z,11.13
2022-12-07T13:16:51.587Z,13.85
2022-12-07T13:22:48.925Z,11.35
2022-12-07T13:28:18.207Z,10.55
2022-12-07T13:33:46.050Z,9.65
2022-12-07T13:39:23.708Z,15.35
2022-12-07T13:44:48.561Z,22.17
2022-12-07T13:50:25.972Z,21.88
2022-12-07T13:55:56.581Z,13.23
2022-12-07T14:01:21.524Z,24.75
2022-12-07T14:12:22.630Z,14.55
2022-12-07T14:17:53.641Z,18.55
2022-12-07T14:23:27.129Z,16.77
2022-12-07T14:29:25.066Z,13.98
2022-12-07T14:34:58.981Z,17.15
2022-12-07T14:40:29.700Z,14.35
2022-12-07T14:45:56.903Z,13.95
2022-12-07T14:57:12.351Z,26.52
2022-12-07T15:02:42.950Z,28.52
2022-12-07T15:08:07.302Z,24.83
2022-12-07T15:19:28.561Z,27.98
2022-12-07T15:24:52.960Z,17.55
2022-12-07T15:30:22.421Z,21.42
2022-12-07T15:35:52.497Z,24.80
2022-12-07T15:41:21.327Z,20.83
2022-12-07T15:46:47.863Z,32.22
2022-12-07T15:52:12.902Z,21.98
2022-12-07T15:57:39.235Z,24.55
2022-12-07T16:03:02.410Z,19.83
2022-12-07T19:40:24.929Z,23.35
2022-12-07T19:45:50.096Z,27.10
2022-12-07T19:51:13.756Z,34.08
2022-12-07T19:56:39.909Z,22.58
2022-12-07T20:02:13.451Z,23.67
2022-12-07T20:07:42.978Z,30.63
2022-12-07T20:13:32.143Z,27.00
2022-12-07T20:18:58.059Z,34.85
2022-12-07T20:24:23.486Z,25.58
2022-12-07T20:29:49.082Z,27.67
2022-12-07T20:35:15.552Z,24.05
2022-12-07T20:40:48.451Z,27.17
2022-12-07T20:46:18.563Z,25.33
2022-12-07T20:51:48.086Z,29.48
2022-12-07T20:57:16.900Z,26.17
2022-12-07T21:02:47.705Z,29.35
2022-12-07T21:08:12.024Z,28.25
2022-12-07T21:13:42.084Z,27.27
2022-12-07T21:19:07.275Z,33.70
2022-12-07T21:24:33.238Z,27.13
2022-12-07T21:30:02.179Z,34.75
2022-12-07T21:35:31.344Z,34.65
2022-12-07T21:41:00.649Z,33.28
2022-12-07T21:46:34.186Z,29.83
2022-12-07T21:52:05.924Z,26.40
2022-12-07T21:57:34.933Z,26.30
2022-12-07T22:03:03.272Z,39.58
2022-12-07T22:08:33.310Z,36.67
2022-12-07T22:14:19.503Z,36.10
2022-12-07T22:19:42.794Z,34.80
2022-12-07T22:25:13.377Z,33.72
2022-12-07T22:30:42.267Z,31.50
2022-12-07T22:36:07.657Z,34.60
2022-12-07T22:41:34.369Z,35.03
2022-12-07T22:46:58.107Z,26.20
2022-12-07T22:52:22.072Z,27.27
2022-12-07T22:57:47.173Z,26.25
2022-12-07T23:03:13.108Z,37.58
2022-12-07T23:08:37.386Z,52.72
2022-12-07T23:14:02.412Z,29.83
2022-12-07T23:19:26.261Z,27.50
2022-12-07T23:24:49.526Z,22.35
2022-12-07T23:30:14.741Z,30.20
2022-12-07T23:35:38.597Z,35.08
2022-12-07T23:41:05.931Z,35.13
2022-12-07T23:46:32.997Z,31.95
2022-12-07T23:51:55.779Z,29.88
2022-12-07T23:57:19.777Z,40.33
